Time;durP1;ratioP1;P1;durP2;ratioP2;P2;SDS_P1;SDS_P2;PMS_P1;PMS_P2;Temp;Humidity;BMP_temperature;BMP_pressure;BME280_temperature;BME280_humidity;BME280_pressure;Samples;Min_cycle;Max_cycle;Signal;HPM_P1;HPM_P2
2021/11/22 00:01:36;;;;;;;9.07;2.15;;;3.90;99.90;;;;;;4998939;28;20041;-57
2021/11/22 00:04:02;;;;;;;8.20;2.05;;;3.80;99.90;;;;;;5047367;28;20487;-56
2021/11/22 00:06:29;;;;;;;5.88;2.05;;;3.80;99.90;;;;;;5031779;28;20053;-57
2021/11/22 00:08:55;;;;;;;7.88;2.35;;;3.80;99.90;;;;;;5014808;28;20045;-54
2021/11/22 00:11:21;;;;;;;9.30;2.67;;;3.80;99.90;;;;;;5012473;28;20530;-57
2021/11/22 00:13:47;;;;;;;9.18;2.95;;;3.80;99.90;;;;;;5023125;28;20053;-56
2021/11/22 00:16:13;;;;;;;8.25;2.70;;;3.80;99.90;;;;;;5048832;28;20045;-57
2021/11/22 00:18:39;;;;;;;8.45;2.25;;;3.80;99.90;;;;;;5046747;28;20051;-56
2021/11/22 00:21:05;;;;;;;6.68;2.58;;;3.70;99.90;;;;;;5032351;28;20507;-54
2021/11/22 00:23:31;;;;;;;6.70;2.30;;;3.70;99.90;;;;;;5048958;28;20085;-57
2021/11/22 00:25:57;;;;;;;4.68;2.05;;;3.70;99.90;;;;;;5048267;28;20487;-56
2021/11/22 00:28:24;;;;;;;7.28;2.47;;;3.60;99.90;;;;;;5026578;28;20487;-57
2021/11/22 00:31:09;;;;;;;7.50;2.67;;;3.60;99.90;;;;;;5028931;28;20377;-56
2021/11/22 00:33:47;;;;;;;3.97;2.20;;;3.60;99.90;;;;;;5032525;28;20535;-57
2021/11/22 00:36:18;;;;;;;;;;;3.60;99.90;;;;;;5031011;28;20534;-57
2021/11/22 00:38:44;;;;;;;8.30;2.30;;;3.50;99.90;;;;;;5048507;28;19967;-58
2021/11/22 00:41:10;;;;;;;7.22;2.22;;;3.60;99.90;;;;;;5048706;28;20037;-58
2021/11/22 00:43:37;;;;;;;8.20;2.40;;;3.50;99.90;;;;;;5049460;28;20058;-58
2021/11/22 00:46:03;;;;;;;7.82;2.42;;;3.50;99.90;;;;;;5014747;28;20447;-58
2021/11/22 00:48:29;;;;;;;10.30;2.63;;;3.50;99.90;;;;;;5047807;28;20107;-58
2021/11/22 00:50:56;;;;;;;5.80;2.50;;;3.60;99.90;;;;;;5014424;28;20040;-58
2021/11/22 00:53:22;;;;;;;6.70;2.80;;;3.60;99.90;;;;;;5032702;28;20090;-58
2021/11/22 00:55:49;;;;;;;9.02;2.40;;;3.50;99.90;;;;;;5031530;28;20080;-58
2021/11/22 00:58:15;;;;;;;8.07;2.53;;;3.50;99.90;;;;;;5030426;28;20041;-57
2021/11/22 01:00:41;;;;;;;7.63;2.30;;;3.50;99.90;;;;;;5048853;28;20048;-57
2021/11/22 01:03:07;;;;;;;4.68;1.95;;;3.50;99.90;;;;;;5021780;28;20535;-58
2021/11/22 01:05:33;;;;;;;5.57;2.17;;;3.40;99.90;;;;;;5029570;28;20044;-57
2021/11/22 01:08:01;;;;;;;6.82;2.38;;;3.40;99.90;;;;;;4998876;28;20068;-57
2021/11/22 01:10:27;;;;;;;5.22;2.20;;;3.40;99.90;;;;;;5047036;28;20041;-58
2021/11/22 01:12:53;;;;;;;9.60;2.72;;;3.30;99.90;;;;;;5014456;28;20057;-57
2021/11/22 01:15:22;;;;;;;8.65;2.17;;;3.30;99.90;;;;;;5048696;28;20419;-57
2021/11/22 01:17:50;;;;;;;6.05;2.00;;;3.20;99.90;;;;;;5037871;28;20055;-57
2021/11/22 01:20:21;;;;;;;8.15;2.22;;;3.20;99.90;;;;;;5028998;28;20049;-57
2021/11/22 01:22:47;;;;;;;10.18;2.28;;;3.20;99.90;;;;;;5030983;28;20083;-57
2021/11/22 01:25:14;;;;;;;6.53;2.42;;;3.10;99.90;;;;;;5014328;28;20052;-57
2021/11/22 01:27:40;;;;;;;7.03;2.20;;;3.10;99.90;;;;;;5047917;28;20525;-56
2021/11/22 01:30:11;;;;;;;7.00;2.10;;;3.10;99.90;;;;;;5012799;28;20098;-54
2021/11/22 01:32:38;;;;;;;7.10;2.33;;;3.00;99.90;;;;;;5030864;28;20049;-56
2021/11/22 01:35:05;;;;;;;5.85;2.00;;;3.00;99.90;;;;;;5017215;28;20053;-57
2021/11/22 01:37:32;;;;;;;7.35;2.40;;;3.00;99.90;;;;;;5051698;28;20045;-56
2021/11/22 01:39:58;;;;;;;10.73;2.08;;;3.00;99.90;;;;;;5034702;28;20049;-57
2021/11/22 01:42:24;;;;;;;7.07;2.20;;;3.00;99.90;;;;;;5051394;28;20048;-57
2021/11/22 01:44:50;;;;;;;9.30;2.45;;;2.90;99.90;;;;;;5051778;28;20159;-57
2021/11/22 01:47:16;;;;;;;5.50;2.50;;;2.90;99.90;;;;;;5051375;28;20045;-56
2021/11/22 01:49:42;;;;;;;5.85;2.15;;;2.90;99.90;;;;;;5029076;28;20382;-56
2021/11/22 01:52:10;;;;;;;6.28;2.03;;;2.80;99.90;;;;;;5038358;28;20095;-57
2021/11/22 01:54:36;;;;;;;5.85;2.03;;;2.80;99.90;;;;;;5052246;28;20045;-56
2021/11/22 01:57:03;;;;;;;5.28;2.05;;;2.80;99.90;;;;;;5017961;28;20052;-58
2021/11/22 01:59:29;;;;;;;7.38;1.52;;;2.80;99.90;;;;;;5050183;28;20076;-56
2021/11/22 02:01:56;;;;;;;5.15;1.90;;;2.70;99.90;;;;;;5047946;28;20037;-57
2021/11/22 02:04:22;;;;;;;6.78;2.55;;;2.70;99.90;;;;;;5051471;28;20147;-57
2021/11/22 02:06:49;;;;;;;9.88;2.53;;;2.70;99.90;;;;;;5017241;28;20037;-57
2021/11/22 02:09:15;;;;;;;10.82;2.58;;;2.70;99.90;;;;;;5050394;28;20401;-56
2021/11/22 02:11:42;;;;;;;6.43;2.42;;;2.70;99.90;;;;;;5050525;28;20053;-57
2021/11/22 02:14:09;;;;;;;9.63;2.45;;;2.80;99.90;;;;;;5017604;28;20053;-57
2021/11/22 02:16:35;;;;;;;6.43;2.10;;;2.70;99.90;;;;;;5017924;28;20538;-57
2021/11/22 02:19:03;;;;;;;5.40;2.08;;;2.70;99.90;;;;;;5034041;28;20120;-56
2021/11/22 02:21:30;;;;;;;8.82;2.42;;;2.70;99.90;;;;;;5050208;28;20444;-56
2021/11/22 02:23:57;;;;;;;6.63;2.30;;;2.70;99.90;;;;;;5050322;28;20052;-56
2021/11/22 02:26:23;;;;;;;8.02;2.30;;;2.70;99.90;;;;;;5050496;28;20537;-56
2021/11/22 02:28:50;;;;;;;6.97;2.00;;;2.70;99.90;;;;;;5032824;28;20131;-57
2021/11/22 02:31:16;;;;;;;7.95;2.85;;;2.70;99.90;;;;;;5033899;28;20045;-57
2021/11/22 02:33:42;;;;;;;8.15;2.30;;;2.70;99.90;;;;;;5034172;28;20049;-57
2021/11/22 02:36:08;;;;;;;10.13;2.83;;;2.60;99.90;;;;;;5033877;28;20123;-57
2021/11/22 02:38:37;;;;;;;6.65;2.25;;;2.60;99.90;;;;;;5051539;28;20057;-57
2021/11/22 02:41:06;;;;;;;7.95;2.33;;;2.60;99.90;;;;;;5028358;28;20087;-56
2021/11/22 02:43:34;;;;;;;8.30;2.30;;;2.60;99.90;;;;;;5051378;28;20159;-59
2021/11/22 02:46:00;;;;;;;6.15;1.95;;;2.50;99.90;;;;;;5050996;28;20526;-58
2021/11/22 02:48:27;;;;;;;5.57;2.00;;;2.50;99.90;;;;;;5033900;28;20530;-56
2021/11/22 02:50:53;;;;;;;7.82;2.17;;;2.40;99.90;;;;;;5032799;28;20049;-56
2021/11/22 02:53:19;;;;;;;4.15;1.80;;;2.30;99.90;;;;;;5048643;28;20508;-56
2021/11/22 02:55:46;;;;;;;7.90;2.08;;;2.40;99.90;;;;;;5031653;28;20145;-57
2021/11/22 02:58:12;;;;;;;9.48;2.03;;;2.40;99.90;;;;;;5051171;28;20507;-57
2021/11/22 03:00:38;;;;;;;7.07;1.95;;;2.30;99.90;;;;;;5032112;28;20108;-57
2021/11/22 03:03:05;;;;;;;7.93;2.17;;;2.20;99.90;;;;;;5017245;28;20069;-57
2021/11/22 03:05:31;;;;;;;5.57;1.80;;;2.20;99.90;;;;;;5031292;28;20076;-57
2021/11/22 03:07:58;;;;;;;6.45;2.28;;;2.20;99.90;;;;;;5034073;28;20330;-57
2021/11/22 03:10:28;;;;;;;5.82;2.17;;;2.10;99.90;;;;;;5051167;28;20044;-57
2021/11/22 03:12:55;;;;;;;7.72;1.70;;;2.10;99.90;;;;;;5015716;28;20049;-56
2021/11/22 03:15:22;;;;;;;6.65;1.75;;;2.00;99.90;;;;;;5050984;28;20483;-58
2021/11/22 03:17:48;;;;;;;7.82;1.77;;;2.00;99.90;;;;;;5033641;28;20104;-56
2021/11/22 03:20:17;;;;;;;7.13;2.00;;;1.90;99.90;;;;;;5043515;28;20092;-58
2021/11/22 03:22:44;;;;;;;8.02;2.20;;;1.90;99.90;;;;;;5019066;28;20466;-57
2021/11/22 03:25:11;;;;;;;8.70;2.00;;;1.90;99.90;;;;;;5033288;28;20139;-57
2021/11/22 03:27:42;;;;;;;6.32;1.90;;;1.90;99.90;;;;;;5031582;28;20037;-58
2021/11/22 03:30:10;;;;;;;8.48;2.17;;;1.80;99.90;;;;;;5032470;28;20144;-58
2021/11/22 03:32:37;;;;;;;9.57;2.33;;;1.80;99.90;;;;;;5000259;28;20045;-57
2021/11/22 03:35:03;;;;;;;5.95;1.50;;;1.70;99.90;;;;;;5044633;28;20365;-57
2021/11/22 03:37:30;;;;;;;6.25;2.10;;;1.70;99.90;;;;;;5032266;28;20470;-58
2021/11/22 03:39:56;;;;;;;5.88;1.90;;;1.70;99.90;;;;;;5045776;28;20045;-57
2021/11/22 03:42:24;;;;;;;7.57;2.25;;;1.60;99.90;;;;;;5047901;28;20115;-58
2021/11/22 03:44:50;;;;;;;7.22;2.08;;;1.70;99.90;;;;;;5044065;28;20049;-58
2021/11/22 03:47:17;;;;;;;5.63;2.58;;;1.70;99.90;;;;;;5033209;28;20103;-57
2021/11/22 03:49:43;;;;;;;6.18;2.35;;;1.70;99.90;;;;;;5048189;28;20053;-56
2021/11/22 03:52:09;;;;;;;5.05;2.30;;;1.70;99.90;;;;;;5026423;28;20033;-57
2021/11/22 03:54:37;;;;;;;8.93;2.08;;;1.70;99.90;;;;;;5041606;28;20045;-57
2021/11/22 03:57:04;;;;;;;7.07;2.55;;;1.70;99.90;;;;;;5031126;28;20128;-57
2021/11/22 03:59:30;;;;;;;9.55;2.85;;;1.70;99.90;;;;;;5014789;28;20059;-57
2021/11/22 04:01:56;;;;;;;5.07;1.88;;;1.70;99.90;;;;;;5031964;28;20163;-57
2021/11/22 04:04:22;;;;;;;8.05;2.33;;;1.70;99.90;;;;;;5048790;28;20049;-57
2021/11/22 04:06:48;;;;;;;5.10;2.20;;;1.60;99.90;;;;;;5049976;28;20110;-58
2021/11/22 04:09:14;;;;;;;6.05;2.25;;;1.70;99.90;;;;;;5031965;28;20053;-58
2021/11/22 04:11:41;;;;;;;9.18;2.13;;;1.70;99.90;;;;;;5049756;28;20507;-56
2021/11/22 04:14:07;;;;;;;5.88;2.25;;;1.70;99.90;;;;;;5032629;28;20514;-57
2021/11/22 04:16:34;;;;;;;5.35;1.90;;;1.70;99.90;;;;;;5030503;28;20049;-58
2021/11/22 04:19:00;;;;;;;5.15;1.88;;;1.70;99.90;;;;;;4999689;28;20048;-58
2021/11/22 04:21:26;;;;;;;4.57;1.70;;;1.70;99.90;;;;;;5031146;28;20041;-58
2021/11/22 04:23:55;;;;;;;6.95;2.20;;;1.60;99.90;;;;;;5032504;28;20060;-58
2021/11/22 04:26:21;;;;;;;4.25;1.88;;;1.50;99.90;;;;;;5048880;28;20037;-57
2021/11/22 04:28:48;;;;;;;6.13;1.83;;;1.50;99.90;;;;;;5014697;28;20049;-57
2021/11/22 04:31:14;;;;;;;5.95;1.73;;;1.50;99.90;;;;;;5015019;28;20049;-57
2021/11/22 04:38:55;;;;;;;2.88;1.73;;;1.40;99.90;;;;;;4997080;23;20067;-56
2021/11/22 04:41:23;;;;;;;6.18;1.60;;;1.30;99.90;;;;;;5049613;28;20048;-57
2021/11/22 04:43:49;;;;;;;5.22;2.40;;;1.20;99.90;;;;;;5029198;28;20120;-56
2021/11/22 04:46:16;;;;;;;5.68;1.80;;;1.20;99.90;;;;;;5004400;28;20148;-57
2021/11/22 04:48:42;;;;;;;4.55;2.17;;;1.20;99.90;;;;;;4989229;28;20107;-58
2021/11/22 04:51:09;;;;;;;4.95;2.10;;;1.20;99.90;;;;;;5048890;28;20045;-59
2021/11/22 04:53:35;;;;;;;6.47;2.38;;;1.20;99.90;;;;;;5023038;28;20045;-57
2021/11/22 04:56:01;;;;;;;7.93;1.95;;;1.20;99.90;;;;;;5041667;28;20052;-58
2021/11/22 04:58:28;;;;;;;5.22;2.35;;;1.10;99.90;;;;;;5028214;28;20047;-58
2021/11/22 05:00:54;;;;;;;5.95;2.03;;;1.10;99.90;;;;;;5049242;28;20048;-58
2021/11/22 05:03:20;;;;;;;3.95;1.80;;;1.00;99.90;;;;;;5011252;28;20128;-57
2021/11/22 05:05:46;;;;;;;5.35;2.15;;;1.00;99.90;;;;;;5041128;28;20130;-58
2021/11/22 05:08:12;;;;;;;4.63;1.85;;;1.00;99.90;;;;;;5010627;28;20049;-57
2021/11/22 05:10:41;;;;;;;4.05;1.88;;;1.00;99.90;;;;;;5031694;28;20042;-57
2021/11/22 05:13:13;;;;;;;4.38;1.88;;;1.00;99.90;;;;;;5049891;28;20127;-56
2021/11/22 05:15:40;;;;;;;6.15;2.25;;;1.00;99.90;;;;;;5039111;28;20045;-57
2021/11/22 05:18:07;;;;;;;4.63;1.90;;;0.90;99.90;;;;;;5049430;28;20099;-58
2021/11/22 05:20:35;;;;;;;5.53;1.95;;;0.90;99.90;;;;;;5029418;28;20491;-58
2021/11/22 05:23:01;;;;;;;7.18;2.05;;;0.90;99.90;;;;;;5028227;28;20045;-58
2021/11/22 05:25:28;;;;;;;5.25;1.95;;;0.90;99.90;;;;;;5025218;28;20112;-57
2021/11/22 05:27:54;;;;;;;4.70;2.13;;;0.90;99.90;;;;;;5017947;28;20045;-57
2021/11/22 05:30:25;;;;;;;7.82;2.83;;;0.90;99.90;;;;;;5039265;28;20041;-57
2021/11/22 05:32:51;;;;;;;5.47;2.20;;;0.90;99.90;;;;;;5020578;28;20087;-58
2021/11/22 05:35:18;;;;;;;4.80;2.08;;;0.80;99.90;;;;;;5014550;28;20056;-57
2021/11/22 05:37:44;;;;;;;4.57;2.05;;;0.80;99.90;;;;;;5015277;28;20059;-58
2021/11/22 05:40:11;;;;;;;6.63;2.30;;;0.80;99.90;;;;;;5049061;28;20052;-57
2021/11/22 05:42:37;;;;;;;5.65;2.67;;;0.80;99.90;;;;;;5014920;28;20052;-57
2021/11/22 05:45:05;;;;;;;4.30;2.35;;;0.80;99.90;;;;;;4990459;28;20104;-57
2021/11/22 05:47:31;;;;;;;5.82;2.38;;;0.70;99.90;;;;;;5028684;28;20511;-58
2021/11/22 05:50:04;;;;;;;11.50;3.53;;;0.70;99.90;;;;;;5027802;28;20045;-57
2021/11/22 05:52:31;;;;;;;5.55;2.75;;;0.70;99.90;;;;;;5027885;28;20045;-57
2021/11/22 05:54:58;;;;;;;10.40;2.70;;;0.70;99.90;;;;;;5027670;28;20140;-58
2021/11/22 05:57:25;;;;;;;4.38;2.63;;;0.70;99.90;;;;;;4979615;28;20162;-58
2021/11/22 05:59:51;;;;;;;6.97;2.85;;;0.70;99.90;;;;;;5015391;28;20081;-58
2021/11/22 06:02:18;;;;;;;4.60;2.08;;;0.70;99.90;;;;;;5044112;28;20128;-57
2021/11/22 06:04:44;;;;;;;6.78;2.70;;;0.60;99.90;;;;;;5048032;28;20053;-58
2021/11/22 06:07:10;;;;;;;9.00;3.05;;;0.60;99.90;;;;;;5049048;28;20527;-56
2021/11/22 06:09:36;;;;;;;9.90;2.65;;;0.60;99.90;;;;;;5004323;28;20053;-57
2021/11/22 06:12:03;;;;;;;9.95;3.22;;;0.60;99.90;;;;;;5012745;28;20544;-54
2021/11/22 06:14:29;;;;;;;7.10;3.40;;;0.70;99.90;;;;;;5022332;28;20388;-58
2021/11/22 06:16:55;;;;;;;6.55;3.67;;;0.70;99.90;;;;;;5048983;28;20045;-58
2021/11/22 06:19:21;;;;;;;6.82;2.88;;;0.60;99.90;;;;;;5011633;28;20046;-58
2021/11/22 06:21:48;;;;;;;9.00;3.30;;;0.60;99.90;;;;;;5053379;28;20103;-58
2021/11/22 06:24:15;;;;;;;6.97;3.83;;;0.60;99.90;;;;;;5034046;28;20045;-58
2021/11/22 06:26:42;;;;;;;6.53;3.28;;;0.50;99.90;;;;;;5009654;28;20125;-60
2021/11/22 06:29:12;;;;;;;8.20;3.35;;;0.50;99.90;;;;;;5031404;28;20046;-59
2021/11/22 06:31:38;;;;;;;7.80;3.28;;;0.40;99.90;;;;;;5033826;28;20057;-58
2021/11/22 06:34:04;;;;;;;8.93;3.30;;;0.50;99.90;;;;;;5052995;28;20045;-57
2021/11/22 06:36:31;;;;;;;7.25;3.22;;;0.40;99.90;;;;;;5033034;28;20048;-57
2021/11/22 06:38:57;;;;;;;10.00;4.03;;;0.40;99.90;;;;;;5030952;28;20107;-58
2021/11/22 06:41:23;;;;;;;6.18;2.45;;;0.40;99.90;;;;;;5049472;28;20132;-58
2021/11/22 06:43:49;;;;;;;4.93;2.80;;;0.40;99.90;;;;;;5013606;28;20095;-58
2021/11/22 06:46:15;;;;;;;8.50;3.38;;;0.40;99.90;;;;;;4998325;28;20116;-59
2021/11/22 06:48:41;;;;;;;6.60;2.78;;;0.30;99.90;;;;;;5051824;28;20064;-59
2021/11/22 06:51:08;;;;;;;6.65;2.58;;;0.40;99.90;;;;;;5018002;28;20087;-58
2021/11/22 06:53:34;;;;;;;7.53;3.42;;;0.40;99.90;;;;;;5000405;28;20520;-58
2021/11/22 06:56:00;;;;;;;6.18;2.80;;;0.30;99.90;;;;;;5031362;28;20057;-59
2021/11/22 06:58:26;;;;;;;7.32;2.70;;;0.40;99.90;;;;;;5015530;28;20119;-59
2021/11/22 07:00:52;;;;;;;4.75;2.47;;;0.30;99.90;;;;;;5030889;28;20518;-58
2021/11/22 07:03:19;;;;;;;7.45;2.47;;;0.30;99.90;;;;;;5014245;28;20136;-56
2021/11/22 07:05:46;;;;;;;6.20;2.42;;;0.30;99.90;;;;;;5030759;28;20049;-57
2021/11/22 07:08:12;;;;;;;10.32;2.80;;;0.40;99.90;;;;;;5030626;28;20163;-57
2021/11/22 07:10:38;;;;;;;9.48;2.85;;;0.30;99.90;;;;;;5050154;28;20491;-59
2021/11/22 07:13:05;;;;;;;5.97;2.95;;;0.40;99.90;;;;;;5051355;28;20048;-58
2021/11/22 07:15:36;;;;;;;6.57;2.55;;;0.30;99.90;;;;;;5031736;28;20057;-48
2021/11/22 07:18:03;;;;;;;7.80;3.05;;;0.30;99.90;;;;;;5051195;28;20049;-59
2021/11/22 07:20:30;;;;;;;4.97;2.63;;;0.40;99.90;;;;;;5012123;28;20112;-57
2021/11/22 07:22:57;;;;;;;7.30;3.03;;;0.30;99.90;;;;;;5027992;28;20052;-57
2021/11/22 07:25:23;;;;;;;8.35;2.90;;;0.40;99.90;;;;;;5030830;28;20107;-58
2021/11/22 07:27:50;;;;;;;5.70;3.22;;;0.40;99.90;;;;;;5051847;28;20048;-58
2021/11/22 07:30:21;;;;;;;8.45;2.60;;;0.40;99.90;;;;;;5030670;28;20080;-58
2021/11/22 07:32:52;;;;;;;9.32;3.15;;;0.40;99.90;;;;;;5040791;28;20566;-55
2021/11/22 07:35:21;;;;;;;4.88;3.05;;;0.40;99.90;;;;;;5026717;28;20049;-58
2021/11/22 07:37:48;;;;;;;6.20;3.28;;;0.40;99.90;;;;;;5033691;28;20048;-57
2021/11/22 07:40:20;;;;;;;9.55;3.65;;;0.40;99.90;;;;;;5051438;28;20053;-57
2021/11/22 07:42:47;;;;;;;7.05;3.95;;;0.40;99.90;;;;;;5033876;28;20061;-58
2021/11/22 07:45:13;;;;;;;7.05;4.40;;;0.40;99.90;;;;;;5051043;28;20123;-58
2021/11/22 07:47:39;;;;;;;9.50;4.38;;;0.40;99.90;;;;;;5017435;28;20400;-57
2021/11/22 07:50:06;;;;;;;7.82;4.35;;;0.40;99.90;;;;;;5051820;28;20037;-58
2021/11/22 07:52:32;;;;;;;8.05;4.13;;;0.40;99.90;;;;;;5049591;28;20080;-59
2021/11/22 07:54:58;;;;;;;9.27;4.65;;;0.50;99.90;;;;;;5029826;28;20483;-57
2021/11/22 07:57:24;;;;;;;7.50;4.05;;;0.60;99.90;;;;;;5013573;28;20049;-58
2021/11/22 07:59:51;;;;;;;9.13;4.07;;;0.80;99.90;;;;;;5032231;28;20044;-58
2021/11/22 08:02:17;;;;;;;9.05;3.85;;;1.00;99.90;;;;;;5050992;28;20389;-56
2021/11/22 08:04:43;;;;;;;6.85;3.28;;;1.10;99.90;;;;;;5016600;28;20088;-57
2021/11/22 08:07:16;;;;;;;5.53;3.40;;;1.20;99.90;;;;;;5029436;28;20041;-57
2021/11/22 08:09:54;;;;;;;7.57;3.33;;;1.30;99.90;;;;;;5044158;28;20050;-57
2021/11/22 08:12:26;;;;;;;10.55;4.15;;;1.40;99.90;;;;;;5029185;28;20041;-57
2021/11/22 08:14:55;;;;;;;8.05;3.28;;;1.50;99.90;;;;;;5012585;28;20045;-57
2021/11/22 08:17:21;;;;;;;5.63;3.63;;;1.60;99.90;;;;;;5032302;28;20068;-58
2021/11/22 08:19:48;;;;;;;6.65;3.70;;;1.80;99.90;;;;;;5050481;28;20474;-59
2021/11/22 08:22:14;;;;;;;5.63;4.05;;;1.90;99.90;;;;;;5050778;28;20048;-58
2021/11/22 08:24:40;;;;;;;8.13;4.10;;;2.20;99.90;;;;;;5032032;28;20064;-57
2021/11/22 08:27:06;;;;;;;6.00;3.78;;;2.50;99.90;;;;;;5044125;28;20048;-57
2021/11/22 08:29:34;;;;;;;10.50;4.38;;;2.70;99.90;;;;;;5016095;28;20064;-57
2021/11/22 08:32:00;;;;;;;9.02;4.82;;;2.80;99.90;;;;;;5027906;28;20046;-58
2021/11/22 08:34:26;;;;;;;5.80;3.83;;;2.80;99.90;;;;;;5045141;28;20055;-59
2021/11/22 08:36:53;;;;;;;8.32;2.72;;;2.90;99.90;;;;;;5032765;28;20456;-57
2021/11/22 08:39:19;;;;;;;7.70;2.53;;;2.90;99.90;;;;;;5017223;28;20539;-58
2021/11/22 08:41:45;;;;;;;6.13;2.13;;;3.00;99.90;;;;;;5008493;28;20052;-58
2021/11/22 08:44:11;;;;;;;5.20;2.00;;;3.10;99.90;;;;;;5031911;28;20045;-59
2021/11/22 08:46:38;;;;;;;6.63;2.17;;;3.10;99.90;;;;;;5032672;28;20052;-58
2021/11/22 08:49:07;;;;;;;4.70;1.95;;;3.10;99.90;;;;;;5050850;28;20049;-56
2021/11/22 08:51:33;;;;;;;5.07;2.20;;;3.10;99.90;;;;;;5050889;28;20138;-57
2021/11/22 08:53:59;;;;;;;4.60;2.03;;;3.30;99.90;;;;;;5028631;28;20092;-58
2021/11/22 08:56:25;;;;;;;2.72;1.83;;;3.40;99.90;;;;;;5047740;28;20450;-58
2021/11/22 08:58:52;;;;;;;3.88;1.67;;;3.40;99.90;;;;;;5012228;28;20045;-58
2021/11/22 09:01:18;;;;;;;4.40;2.00;;;3.40;99.90;;;;;;5046443;28;20101;-57
2021/11/22 09:03:44;;;;;;;9.70;3.17;;;3.40;99.90;;;;;;5032273;28;20048;-57
2021/11/22 09:06:11;;;;;;;5.47;2.42;;;3.40;99.90;;;;;;4996189;28;20057;-58
2021/11/22 09:08:37;;;;;;;5.35;2.63;;;3.40;99.90;;;;;;5005487;28;20050;-58
2021/11/22 09:11:03;;;;;;;6.03;2.50;;;3.60;99.90;;;;;;5011373;28;20060;-59
2021/11/22 09:13:29;;;;;;;6.13;1.98;;;3.70;99.90;;;;;;5040123;28;20048;-59
2021/11/22 09:15:56;;;;;;;6.32;2.10;;;4.10;99.90;;;;;;5019799;28;20064;-58
2021/11/22 09:18:22;;;;;;;7.25;1.80;;;4.50;99.90;;;;;;5027311;28;20388;-58
2021/11/22 09:20:48;;;;;;;9.20;2.35;;;5.30;99.90;;;;;;5022684;28;20183;-57
2021/11/22 09:23:16;;;;;;;5.60;2.10;;;5.80;99.90;;;;;;5042788;28;20053;-58
2021/11/22 09:25:42;;;;;;;4.82;2.05;;;6.50;99.90;;;;;;5010106;28;20049;-55
2021/11/22 09:28:10;;;;;;;5.70;2.53;;;6.80;99.90;;;;;;5039247;28;20066;-59
2021/11/22 09:30:37;;;;;;;8.52;2.50;;;7.40;99.90;;;;;;5010443;28;20041;-56
2021/11/22 09:33:05;;;;;;;4.95;2.10;;;8.40;99.90;;;;;;5049406;28;20088;-58
2021/11/22 09:35:31;;;;;;;4.20;2.20;;;9.20;99.90;;;;;;5002595;28;20049;-57
2021/11/22 09:37:57;;;;;;;6.60;2.55;;;10.10;99.90;;;;;;5045341;28;20400;-58
2021/11/22 09:40:23;;;;;;;7.00;2.30;;;10.90;99.90;;;;;;5040942;28;20815;-56
2021/11/22 09:42:54;;;;;;;5.18;2.38;;;11.50;99.90;;;;;;4991457;28;20046;-58
2021/11/22 09:45:21;;;;;;;7.75;2.53;;;12.00;99.90;;;;;;5008613;28;20038;-57
2021/11/22 09:47:47;;;;;;;4.10;2.10;;;12.50;99.90;;;;;;5001930;28;20052;-58
2021/11/22 09:50:16;;;;;;;5.82;2.08;;;12.80;99.90;;;;;;5047866;28;20040;-57
2021/11/22 09:52:42;;;;;;;14.68;11.00;;;12.70;99.90;;;;;;5010843;28;20045;-54
2021/11/22 09:55:08;;;;;;;6.72;3.35;;;12.60;99.90;;;;;;5029318;28;20408;-57
2021/11/22 09:57:34;;;;;;;7.63;2.20;;;12.20;99.90;;;;;;5032102;28;20570;-57
2021/11/22 10:00:00;;;;;;;5.32;2.88;;;12.10;99.90;;;;;;5032534;28;20049;-58
2021/11/22 10:02:51;;;;;;;5.18;2.58;;;11.80;99.90;;;;;;5035375;28;20049;-57
2021/11/22 10:05:18;;;;;;;4.60;2.38;;;11.40;99.90;;;;;;5011823;28;20061;-57
2021/11/22 10:07:56;;;;;;;3.90;2.40;;;11.50;99.90;;;;;;5012426;28;20092;-56
2021/11/22 10:10:23;;;;;;;6.18;2.28;;;11.90;99.90;;;;;;5047740;28;20538;-52
2021/11/22 10:12:50;;;;;;;3.85;1.63;;;12.20;99.90;;;;;;5015744;28;20046;-54
2021/11/22 10:15:16;;;;;;;4.93;1.50;;;12.70;99.90;;;;;;5015204;28;20049;-56
2021/11/22 10:17:45;;;;;;;3.33;1.77;;;13.10;99.90;;;;;;5052295;28;20041;-51
2021/11/22 10:20:15;;;;;;;3.92;1.48;;;13.80;99.90;;;;;;5053050;28;20179;-51
2021/11/22 10:23:03;;;;;;;2.80;1.13;;;13.80;99.90;;;;;;5053229;28;20068;-58
2021/11/22 10:25:40;;;;;;;3.85;1.25;;;14.00;99.90;;;;;;5032222;28;20046;-58
2021/11/22 10:28:11;;;;;;;3.38;1.40;;;13.60;99.90;;;;;;4999326;28;20473;-61
2021/11/22 10:30:59;;;;;;;3.83;1.35;;;13.00;99.90;;;;;;5049176;28;20135;-59
2021/11/22 10:33:30;;;;;;;4.25;1.23;;;12.90;99.90;;;;;;5052577;28;20106;-56
2021/11/22 10:36:00;;;;;;;3.28;1.30;;;12.80;99.90;;;;;;5013764;28;20049;-56
2021/11/22 10:38:36;;;;;;;4.72;1.20;;;13.00;99.90;;;;;;5046106;28;20060;-57
2021/11/22 10:41:30;;;;;;;2.35;1.15;;;13.30;99.90;;;;;;5052287;28;20534;-57
2021/11/22 10:44:08;;;;;;;5.00;1.33;;;14.00;99.90;;;;;;5032373;28;20045;-56
2021/11/22 10:46:44;;;;;;;3.85;0.80;;;14.50;99.90;;;;;;5017861;28;20056;-60
2021/11/22 10:49:17;;;;;;;4.55;1.25;;;15.00;96.40;;;;;;5050775;28;20044;-59
2021/11/22 10:51:50;;;;;;;4.25;0.70;;;15.70;92.60;;;;;;5052621;28;20394;-59
2021/11/22 10:54:19;;;;;;;3.00;0.82;;;16.00;82.30;;;;;;5029261;28;20107;-57
2021/11/22 10:56:49;;;;;;;4.95;1.60;;;16.40;85.00;;;;;;5014479;28;20090;-57
2021/11/22 10:59:17;;;;;;;2.65;0.77;;;16.60;78.70;;;;;;5026547;28;20053;-57
2021/11/22 11:01:48;;;;;;;4.55;0.73;;;16.90;75.80;;;;;;5012565;28;20115;-57
2021/11/22 11:04:27;;;;;;;10.93;6.05;;;16.80;73.50;;;;;;5010685;28;20042;-57
2021/11/22 11:07:00;;;;;;;2.65;0.90;;;16.50;63.20;;;;;;5014211;28;20052;-57
2021/11/22 11:09:29;;;;;;;3.08;0.95;;;16.00;69.30;;;;;;5033970;28;20144;-57
2021/11/22 11:12:02;;;;;;;6.82;3.38;;;15.70;72.40;;;;;;5017932;28;20577;-57
2021/11/22 11:14:30;;;;;;;9.50;5.90;;;15.80;68.00;;;;;;5032884;28;20049;-57
2021/11/22 11:17:26;;;;;;;7.05;3.08;;;16.10;70.10;;;;;;5017306;28;20056;-57
2021/11/22 11:19:55;;;;;;;4.28;1.30;;;16.60;63.50;;;;;;5051424;28;20041;-57
2021/11/22 11:22:26;;;;;;;3.55;0.77;;;16.60;66.90;;;;;;5032486;28;20060;-57
2021/11/22 11:24:53;;;;;;;;;;;16.70;65.40;;;;;;5030854;28;20091;-56
2021/11/22 11:27:19;;;;;;;3.78;1.10;;;16.50;58.80;;;;;;5047732;28;20020;-60
2021/11/22 11:29:45;;;;;;;6.15;0.80;;;16.60;66.60;;;;;;5027485;28;20041;-60
2021/11/22 11:32:12;;;;;;;5.68;1.20;;;17.00;64.20;;;;;;5042540;28;20048;-57
2021/11/22 11:34:45;;;;;;;5.80;2.25;;;17.50;62.50;;;;;;5015236;28;20041;-49
2021/11/22 11:37:37;;;;;;;2.67;0.80;;;17.60;60.30;;;;;;5029588;28;20049;-57
2021/11/22 11:40:19;;;;;;;2.35;0.88;;;18.00;55.70;;;;;;4991571;28;20129;-57
2021/11/22 11:42:58;;;;;;;5.95;1.15;;;18.10;58.70;;;;;;5037838;28;20438;-57
2021/11/22 11:45:44;;;;;;;3.92;1.08;;;18.00;57.90;;;;;;5030963;28;20492;-60
2021/11/22 11:48:35;;;;;;;5.35;0.80;;;18.30;55.20;;;;;;5010652;28;20098;-57
2021/11/22 11:51:28;;;;;;;4.07;1.05;;;18.50;54.80;;;;;;5048404;28;20045;-59
2021/11/22 11:54:01;;;;;;;1.80;0.70;;;18.30;52.70;;;;;;5013543;28;20056;-59
2021/11/22 11:56:43;;;;;;;2.85;0.75;;;18.30;53.00;;;;;;5006477;28;20084;-59
2021/11/22 11:59:27;;;;;;;3.67;0.93;;;18.10;53.90;;;;;;5031146;28;20388;-59
2021/11/22 12:01:54;;;;;;;4.68;0.82;;;18.50;53.00;;;;;;5031402;28;20144;-60
2021/11/22 12:04:21;;;;;;;2.28;0.65;;;18.70;54.40;;;;;;5015641;28;20125;-59
2021/11/22 12:06:53;;;;;;;7.28;1.27;;;18.90;53.20;;;;;;5024786;28;20464;-60
2021/11/22 12:09:39;;;;;;;4.60;1.00;;;19.10;52.10;;;;;;5030704;28;20107;-59
2021/11/22 12:12:08;;;;;;;6.53;1.08;;;18.90;49.30;;;;;;5026437;28;20081;-59
2021/11/22 12:14:58;;;;;;;2.70;0.75;;;18.80;51.60;;;;;;4995488;28;20128;-60
2021/11/22 12:17:36;;;;;;;2.28;0.70;;;19.10;50.20;;;;;;4993451;28;20408;-59
2021/11/22 12:20:34;;;;;;;3.28;0.88;;;18.90;49.30;;;;;;5030840;28;20791;-59
2021/11/22 12:23:06;;;;;;;4.40;0.88;;;19.30;49.20;;;;;;5030591;28;20107;-59
2021/11/22 12:25:38;;;;;;;3.05;1.25;;;19.40;50.70;;;;;;5045381;28;20103;-57
2021/11/22 12:28:10;;;;;;;2.55;0.63;;;19.10;48.40;;;;;;5029433;28;20095;-57
2021/11/22 12:30:42;;;;;;;1.85;0.60;;;19.00;49.30;;;;;;5032263;28;20442;-60
2021/11/22 12:33:49;;;;;;;3.03;0.68;;;19.30;49.40;;;;;;5030662;28;20049;-60
2021/11/22 12:36:15;;;;;;;3.67;0.88;;;19.50;47.20;;;;;;5027945;28;20057;-57
2021/11/22 12:38:42;;;;;;;3.15;0.70;;;19.50;48.90;;;;;;5012892;28;20045;-57
2021/11/22 12:41:12;;;;;;;3.42;0.70;;;19.50;47.80;;;;;;5028861;28;20132;-58
2021/11/22 12:43:45;;;;;;;2.83;0.57;;;18.80;46.90;;;;;;5029873;28;20064;-59
2021/11/22 12:46:14;;;;;;;2.00;0.52;;;18.80;46.90;;;;;;5049422;28;20582;-57
2021/11/22 12:48:45;;;;;;;2.92;0.80;;;19.00;48.30;;;;;;5031524;28;20046;-60
2021/11/22 12:51:17;;;;;;;1.42;0.45;;;18.50;46.90;;;;;;5047719;28;20045;-60
2021/11/22 12:54:16;;;;;;;3.08;0.63;;;18.70;48.10;;;;;;5028135;28;20056;-60
2021/11/22 12:56:43;;;;;;;3.40;0.77;;;18.80;45.10;;;;;;4992788;28;20344;-59
2021/11/22 12:59:16;;;;;;;3.25;0.90;;;18.40;48.00;;;;;;5028651;28;20049;-57
2021/11/22 13:01:51;;;;;;;5.05;1.00;;;18.10;47.80;;;;;;5015086;28;20049;-62
2021/11/22 13:04:44;;;;;;;2.80;0.57;;;18.30;47.00;;;;;;5049414;28;20415;-59
2021/11/22 13:07:35;;;;;;;5.18;0.75;;;18.10;45.50;;;;;;5048980;28;20045;-57
2021/11/22 13:10:06;;;;;;;3.63;0.93;;;18.20;46.70;;;;;;5041596;28;20068;-57